PWSweather.com
Personal Weather Stations
Station Observations
RAINWISE1
Rainwise Factory, Bar Harbor, ME 04609

Rainwise FactoryBar Harbor, ME 04609

Lat: 44.3897429696629, Lon: -68.2077813148499

Elevation: 29

Station Type: Rainwise MK-III

Latest ConditionsUpdated 3:54:00 PM EDT Friday, Aug 18, 2017
Currently Today's Max Today's Min Today's Average
Temperature 63.2°F17.3°C 68.0°F20.0°C 47.3°F8.5°C 57.5°F14.2°C
Dew Point 59.9°F15.5°C 60.1°F15.6°C 46.4°F8.0°C 52.6°F11.4°C
Winds 1.1 mph SSE1.8 kmh SSE 5.7 mph SSE9.2 kmh SSE - 1.6 mph 2.6 kmh
Wind Gusts 2.1 mph3.4 kmh 8.1 mph13.0 kmh - -
Humidity 89% 98% 61% 85%
Pressure 30.03 in1016.9 mb 30.07 in1018.3 mb 30.03 in1016.9 mb -
Precipitation - 0.01 in0.3 mm - -
Hour Temp Dew Point Humidity Winds Wind Gusts Pressure Precip Precip Rate Daily Precip Total
03:54 PM 63.2°F17.3°C 59.9°F15.5°C 89% 1.1 mph SSE1.8 kmh SSE 2.1 mph3.4 kmh 30.03 in1016.9 mb 0.00 in0.0 mm 0.00 in0.0 mm 0.01 in0.3 mm
03:49 PM 62.9°F17.2°C 59.6°F15.3°C 89% 2.4 mph SSW3.9 kmh SSW 3.2 mph5.1 kmh 30.03 in1016.9 mb 0.00 in0.0 mm 0.00 in0.0 mm 0.01 in0.3 mm
03:44 PM 62.7°F17.1°C 59.1°F15.1°C 88% 1.2 mph SSE1.9 kmh SSE 2.2 mph3.5 kmh 30.03 in1016.9 mb 0.00 in0.0 mm 0.00 in0.0 mm 0.01 in0.3 mm
03:39 PM 62.6°F17.0°C 59.3°F15.2°C 89% 2.0 mph S3.2 kmh S 2.6 mph4.2 kmh 30.03 in1016.9 mb 0.00 in0.0 mm 0.00 in0.0 mm 0.01 in0.3 mm
03:34 PM 62.5°F16.9°C 59.2°F15.1°C 89% 0.3 mph S0.5 kmh S 1.3 mph2.1 kmh 30.03 in1016.9 mb 0.00 in0.0 mm 0.00 in0.0 mm 0.01 in0.3 mm
03:29 PM 62.4°F16.9°C 58.8°F14.9°C 88% 0.1 mph ENE0.2 kmh ENE 1.1 mph1.8 kmh 30.03 in1016.9 mb 0.00 in0.0 mm 0.00 in0.0 mm 0.01 in0.3 mm
03:24 PM 62.5°F16.9°C 58.6°F14.8°C 87% 0.8 mph ENE1.3 kmh ENE 1.6 mph2.6 kmh 30.03 in1016.9 mb 0.00 in0.0 mm 0.00 in0.0 mm 0.01 in0.3 mm
03:19 PM 62.6°F17.0°C 59.0°F15.0°C 88% 0.9 mph SSE1.4 kmh SSE 2.2 mph3.5 kmh 30.03 in1016.9 mb 0.00 in0.0 mm 0.00 in0.0 mm 0.01 in0.3 mm
03:14 PM 62.6°F17.0°C 58.7°F14.8°C 87% 0.6 mph SSE1.0 kmh SSE 2.1 mph3.4 kmh 30.03 in1016.9 mb 0.00 in0.0 mm 0.00 in0.0 mm 0.01 in0.3 mm
03:09 PM 62.5°F16.9°C 58.6°F14.8°C 87% 1.6 mph S2.6 kmh S 2.1 mph3.4 kmh 30.04 in1017.3 mb 0.00 in0.0 mm 0.00 in0.0 mm 0.01 in0.3 mm
03:04 PM 62.4°F16.9°C 58.5°F14.7°C 87% 2.2 mph S3.5 kmh S 3.0 mph4.8 kmh 30.04 in1017.3 mb 0.00 in0.0 mm 0.00 in0.0 mm 0.01 in0.3 mm
02:59 PM 62.4°F16.9°C 58.5°F14.7°C 87% 3.1 mph SSE5.0 kmh SSE 4.4 mph7.1 kmh 30.04 in1017.3 mb 0.00 in0.0 mm 0.00 in0.0 mm 0.01 in0.3 mm
02:54 PM 62.4°F16.9°C 58.5°F14.7°C 87% 2.7 mph SE4.3 kmh SE 4.7 mph7.6 kmh 30.04 in1017.3 mb 0.00 in0.0 mm 0.00 in0.0 mm 0.01 in0.3 mm
02:49 PM 62.5°F16.9°C 58.6°F14.8°C 87% 3.0 mph SE4.8 kmh SE 4.4 mph7.1 kmh 30.04 in1017.3 mb 0.00 in0.0 mm 0.00 in0.0 mm 0.01 in0.3 mm
02:44 PM 62.8°F17.1°C 58.9°F14.9°C 87% 3.0 mph SSE4.8 kmh SSE 4.0 mph6.4 kmh 30.04 in1017.3 mb 0.00 in0.0 mm 0.00 in0.0 mm 0.01 in0.3 mm
02:39 PM 63.0°F17.2°C 59.1°F15.1°C 87% 2.9 mph SSE4.7 kmh SSE 4.2 mph6.8 kmh 30.04 in1017.3 mb 0.00 in0.0 mm 0.00 in0.0 mm 0.01 in0.3 mm
02:34 PM 63.0°F17.2°C 59.1°F15.1°C 87% 2.3 mph SE3.7 kmh SE 3.5 mph5.6 kmh 30.04 in1017.3 mb 0.00 in0.0 mm 0.00 in0.0 mm 0.01 in0.3 mm
02:29 PM 63.1°F17.3°C 58.8°F14.9°C 86% 2.1 mph SE3.4 kmh SE 3.2 mph5.1 kmh 30.04 in1017.3 mb 0.00 in0.0 mm 0.00 in0.0 mm 0.01 in0.3 mm
02:24 PM 63.0°F17.2°C 59.1°F15.1°C 87% 3.1 mph S5.0 kmh S 4.0 mph6.4 kmh 30.04 in1017.3 mb 0.00 in0.0 mm 0.00 in0.0 mm 0.01 in0.3 mm
02:19 PM 62.9°F17.2°C 59.0°F15.0°C 87% 1.1 mph SSW1.8 kmh SSW 2.6 mph4.2 kmh 30.04 in1017.3 mb 0.00 in0.0 mm 0.00 in0.0 mm 0.01 in0.3 mm
02:14 PM 62.7°F17.1°C 58.4°F14.7°C 86% 1.4 mph SE2.3 kmh SE 3.0 mph4.8 kmh 30.05 in1017.6 mb 0.00 in0.0 mm 0.00 in0.0 mm 0.01 in0.3 mm
02:09 PM 62.6°F17.0°C 58.7°F14.8°C 87% 0.6 mph SE1.0 kmh SE 2.6 mph4.2 kmh 30.05 in1017.6 mb 0.00 in0.0 mm 0.00 in0.0 mm 0.01 in0.3 mm
02:04 PM 62.5°F16.9°C 58.3°F14.6°C 86% 1.8 mph SE2.9 kmh SE 4.0 mph6.4 kmh 30.05 in1017.6 mb 0.00 in0.0 mm 0.00 in0.0 mm 0.01 in0.3 mm
01:59 PM 62.2°F16.8°C 58.0°F14.4°C 86% 1.4 mph S2.3 kmh S 3.2 mph5.1 kmh 30.05 in1017.6 mb 0.00 in0.0 mm 0.00 in0.0 mm 0.01 in0.3 mm
01:54 PM 62.1°F16.7°C 57.9°F14.4°C 86% 2.9 mph SE4.7 kmh SE 4.4 mph7.1 kmh 30.05 in1017.6 mb 0.00 in0.0 mm 0.00 in0.0 mm 0.01 in0.3 mm
01:49 PM 62.0°F16.7°C 57.1°F13.9°C 84% 2.2 mph SSE3.5 kmh SSE 4.4 mph7.1 kmh 30.05 in1017.6 mb 0.00 in0.0 mm 0.00 in0.0 mm 0.01 in0.3 mm
01:44 PM 62.2°F16.8°C 57.3°F14.1°C 84% 3.2 mph SSE5.1 kmh SSE 4.2 mph6.8 kmh 30.06 in1017.9 mb 0.00 in0.0 mm 0.00 in0.0 mm 0.01 in0.3 mm
01:39 PM 62.2°F16.8°C 57.3°F14.1°C 84% 2.3 mph SSW3.7 kmh SSW 3.7 mph6.0 kmh 30.06 in1017.9 mb 0.00 in0.0 mm 0.00 in0.0 mm 0.01 in0.3 mm
01:34 PM 62.4°F16.9°C 57.2°F14.0°C 83% 2.6 mph S4.2 kmh S 4.0 mph6.4 kmh 30.06 in1017.9 mb 0.00 in0.0 mm 0.00 in0.0 mm 0.01 in0.3 mm
01:29 PM 62.5°F16.9°C 57.3°F14.1°C 83% 4.3 mph SSW6.9 kmh SSW 5.0 mph8.0 kmh 30.06 in1017.9 mb 0.00 in0.0 mm 0.00 in0.0 mm 0.01 in0.3 mm
01:24 PM 62.5°F16.9°C 56.9°F13.8°C 82% 4.9 mph S7.9 kmh S 7.0 mph11.3 kmh 30.06 in1017.9 mb 0.00 in0.0 mm 0.00 in0.0 mm 0.00 in0.0 mm
01:19 PM 62.4°F16.9°C 56.5°F13.6°C 81% 3.2 mph SSE5.1 kmh SSE 5.0 mph8.0 kmh 30.06 in1017.9 mb 0.00 in0.0 mm 0.00 in0.0 mm 0.00 in0.0 mm
01:14 PM 62.6°F17.0°C 56.3°F13.5°C 80% 2.5 mph SSE4.0 kmh SSE 5.5 mph8.9 kmh 30.06 in1017.9 mb 0.00 in0.0 mm 0.00 in0.0 mm 0.00 in0.0 mm
01:09 PM 63.0°F17.2°C 56.4°F13.6°C 79% 2.5 mph SSE4.0 kmh SSE 4.9 mph7.9 kmh 30.06 in1017.9 mb 0.00 in0.0 mm 0.00 in0.0 mm 0.00 in0.0 mm
01:04 PM 63.4°F17.4°C 56.4°F13.6°C 78% 1.8 mph S2.9 kmh S 3.0 mph4.8 kmh 30.05 in1017.6 mb 0.00 in0.0 mm 0.00 in0.0 mm 0.00 in0.0 mm
12:59 PM 63.5°F17.5°C 56.5°F13.6°C 78% 1.8 mph SSE2.9 kmh SSE 3.0 mph4.8 kmh 30.06 in1017.9 mb 0.00 in0.0 mm 0.00 in0.0 mm 0.00 in0.0 mm
12:54 PM 63.6°F17.6°C 56.6°F13.7°C 78% 2.7 mph S4.3 kmh S 3.7 mph6.0 kmh 30.06 in1017.9 mb 0.00 in0.0 mm 0.00 in0.0 mm 0.00 in0.0 mm
12:49 PM 63.5°F17.5°C 56.5°F13.6°C 78% 2.2 mph SSE3.5 kmh SSE 3.5 mph5.6 kmh 30.06 in1017.9 mb 0.00 in0.0 mm 0.00 in0.0 mm 0.00 in0.0 mm
12:44 PM 63.2°F17.3°C 55.9°F13.3°C 77% 3.3 mph SSE5.3 kmh SSE 5.5 mph8.9 kmh 30.06 in1017.9 mb 0.00 in0.0 mm 0.00 in0.0 mm 0.00 in0.0 mm
12:39 PM 63.2°F17.3°C 55.9°F13.3°C 77% 3.0 mph SE4.8 kmh SE 4.4 mph7.1 kmh 30.06 in1017.9 mb 0.00 in0.0 mm 0.00 in0.0 mm 0.00 in0.0 mm
12:34 PM 63.1°F17.3°C 55.0°F12.8°C 75% 3.4 mph SSE5.5 kmh SSE 4.9 mph7.9 kmh 30.06 in1017.9 mb 0.00 in0.0 mm 0.00 in0.0 mm 0.00 in0.0 mm
12:29 PM 63.3°F17.4°C 54.9°F12.7°C 74% 2.9 mph S4.7 kmh S 5.7 mph9.2 kmh 30.07 in1018.3 mb 0.00 in0.0 mm 0.00 in0.0 mm 0.00 in0.0 mm
12:24 PM 63.5°F17.5°C 54.7°F12.6°C 73% 3.4 mph SSE5.5 kmh SSE 4.7 mph7.6 kmh 30.07 in1018.3 mb 0.00 in0.0 mm 0.00 in0.0 mm 0.00 in0.0 mm
12:19 PM 63.7°F17.6°C 54.5°F12.5°C 72% 1.7 mph S2.7 kmh S 2.6 mph4.2 kmh 30.07 in1018.3 mb 0.00 in0.0 mm 0.00 in0.0 mm 0.00 in0.0 mm
12:14 PM 64.2°F17.9°C 54.6°F12.6°C 71% 3.5 mph SE5.6 kmh SE 6.5 mph10.5 kmh 30.07 in1018.3 mb 0.00 in0.0 mm 0.00 in0.0 mm 0.00 in0.0 mm
12:09 PM 64.7°F18.2°C 54.3°F12.4°C 69% 3.1 mph SE5.0 kmh SE 8.1 mph13.0 kmh 30.06 in1017.9 mb 0.00 in0.0 mm 0.00 in0.0 mm 0.00 in0.0 mm
12:04 PM 65.1°F18.4°C 53.9°F12.2°C 67% 3.4 mph SE5.5 kmh SE 4.2 mph6.8 kmh 30.06 in1017.9 mb 0.00 in0.0 mm 0.00 in0.0 mm 0.00 in0.0 mm
11:59 AM 65.4°F18.6°C 54.2°F12.3°C 67% 1.9 mph SSE3.1 kmh SSE 4.2 mph6.8 kmh 30.06 in1017.9 mb 0.00 in0.0 mm 0.00 in0.0 mm 0.00 in0.0 mm
11:54 AM 65.5°F18.6°C 53.8°F12.1°C 66% 2.4 mph SSE3.9 kmh SSE 3.7 mph6.0 kmh 30.06 in1017.9 mb 0.00 in0.0 mm 0.00 in0.0 mm 0.00 in0.0 mm
11:49 AM 65.7°F18.7°C 54.0°F12.2°C 66% 2.6 mph SSE4.2 kmh SSE 4.4 mph7.1 kmh 30.06 in1017.9 mb 0.00 in0.0 mm 0.00 in0.0 mm 0.00 in0.0 mm
11:44 AM 65.7°F18.7°C 53.6°F12.0°C 65% 2.9 mph ESE4.7 kmh ESE 5.5 mph8.9 kmh 30.07 in1018.3 mb 0.00 in0.0 mm 0.00 in0.0 mm 0.00 in0.0 mm
11:39 AM 65.9°F18.8°C 53.8°F12.1°C 65% 3.3 mph SSE5.3 kmh SSE 4.9 mph7.9 kmh 30.07 in1018.3 mb 0.00 in0.0 mm 0.00 in0.0 mm 0.00 in0.0 mm
11:34 AM 66.0°F18.9°C 53.9°F12.2°C 65% 2.7 mph SSE4.3 kmh SSE 4.7 mph7.6 kmh 30.07 in1018.3 mb 0.00 in0.0 mm 0.00 in0.0 mm 0.00 in0.0 mm
11:29 AM 66.2°F19.0°C 53.7°F12.1°C 64% 4.8 mph SSE7.7 kmh SSE 7.5 mph12.1 kmh 30.07 in1018.3 mb 0.00 in0.0 mm 0.00 in0.0 mm 0.00 in0.0 mm
11:24 AM 66.5°F19.2°C 53.5°F11.9°C 63% 5.4 mph SSE8.7 kmh SSE 7.2 mph11.6 kmh 30.07 in1018.3 mb 0.00 in0.0 mm 0.00 in0.0 mm 0.00 in0.0 mm
11:19 AM 66.7°F19.3°C 53.7°F12.1°C 63% 3.9 mph S6.3 kmh S 5.4 mph8.7 kmh 30.07 in1018.3 mb 0.00 in0.0 mm 0.00 in0.0 mm 0.00 in0.0 mm
11:14 AM 66.7°F19.3°C 53.7°F12.1°C 63% 3.2 mph S5.1 kmh S 4.7 mph7.6 kmh 30.07 in1018.3 mb 0.00 in0.0 mm 0.00 in0.0 mm 0.00 in0.0 mm
11:09 AM 66.9°F19.4°C 53.4°F11.9°C 62% 4.1 mph SSE6.6 kmh SSE 6.5 mph10.5 kmh 30.06 in1017.9 mb 0.00 in0.0 mm 0.00 in0.0 mm 0.00 in0.0 mm
11:04 AM 67.4°F19.7°C 53.5°F11.9°C 61% 4.9 mph SSE7.9 kmh SSE 7.9 mph12.7 kmh 30.06 in1017.9 mb 0.00 in0.0 mm 0.00 in0.0 mm 0.00 in0.0 mm
10:59 AM 67.7°F19.8°C 53.8°F12.1°C 61% 1.9 mph SE3.1 kmh SE 6.7 mph10.8 kmh 30.06 in1017.9 mb 0.00 in0.0 mm 0.00 in0.0 mm 0.00 in0.0 mm
10:54 AM 68.0°F20.0°C 54.0°F12.2°C 61% 1.9 mph SE3.1 kmh SE 3.7 mph6.0 kmh 30.06 in1017.9 mb 0.00 in0.0 mm 0.00 in0.0 mm 0.00 in0.0 mm
10:49 AM 68.0°F20.0°C 54.0°F12.2°C 61% 1.7 mph SSE2.7 kmh SSE 4.4 mph7.1 kmh 30.06 in1017.9 mb 0.00 in0.0 mm 0.00 in0.0 mm 0.00 in0.0 mm
10:44 AM 67.8°F19.9°C 53.9°F12.2°C 61% 2.0 mph S3.2 kmh S 3.5 mph5.6 kmh 30.06 in1017.9 mb 0.00 in0.0 mm 0.00 in0.0 mm 0.00 in0.0 mm
10:39 AM 67.7°F19.8°C 53.8°F12.1°C 61% 4.0 mph SSE6.4 kmh SSE 6.2 mph10.0 kmh 30.06 in1017.9 mb 0.00 in0.0 mm 0.00 in0.0 mm 0.00 in0.0 mm
10:34 AM 67.9°F19.9°C 54.4°F12.4°C 62% 5.7 mph SSE9.2 kmh SSE 7.7 mph12.4 kmh 30.06 in1017.9 mb 0.00 in0.0 mm 0.00 in0.0 mm 0.00 in0.0 mm
10:29 AM 67.6°F19.8°C 54.1°F12.3°C 62% 3.1 mph ESE5.0 kmh ESE 4.9 mph7.9 kmh 30.07 in1018.3 mb 0.00 in0.0 mm 0.00 in0.0 mm 0.00 in0.0 mm
10:24 AM 67.2°F19.6°C 53.7°F12.1°C 62% 2.8 mph ESE4.5 kmh ESE 4.7 mph7.6 kmh 30.07 in1018.3 mb 0.00 in0.0 mm 0.00 in0.0 mm 0.00 in0.0 mm
10:19 AM 66.9°F19.4°C 53.4°F11.9°C 62% 0.7 mph SE1.1 kmh SE 3.2 mph5.1 kmh 30.07 in1018.3 mb 0.00 in0.0 mm 0.00 in0.0 mm 0.00 in0.0 mm
10:14 AM 66.7°F19.3°C 53.3°F11.8°C 62% 3.5 mph S5.6 kmh S 6.0 mph9.7 kmh 30.07 in1018.3 mb 0.00 in0.0 mm 0.00 in0.0 mm 0.00 in0.0 mm
10:09 AM 66.5°F19.2°C 52.6°F11.4°C 61% 3.1 mph S5.0 kmh S 5.0 mph8.0 kmh 30.07 in1018.3 mb 0.00 in0.0 mm 0.00 in0.0 mm 0.00 in0.0 mm
10:04 AM 66.5°F19.2°C 53.1°F11.7°C 62% 3.2 mph SSE5.1 kmh SSE 5.4 mph8.7 kmh 30.07 in1018.3 mb 0.00 in0.0 mm 0.00 in0.0 mm 0.00 in0.0 mm
09:59 AM 66.7°F19.3°C 52.8°F11.6°C 61% 2.6 mph SSE4.2 kmh SSE 4.7 mph7.6 kmh 30.07 in1018.3 mb 0.00 in0.0 mm 0.00 in0.0 mm 0.00 in0.0 mm
09:54 AM 67.0°F19.4°C 53.1°F11.7°C 61% 2.8 mph SSE4.5 kmh SSE 4.2 mph6.8 kmh 30.06 in1017.9 mb 0.00 in0.0 mm 0.00 in0.0 mm 0.00 in0.0 mm
09:49 AM 67.4°F19.7°C 53.5°F11.9°C 61% 3.2 mph SE5.1 kmh SE 6.2 mph10.0 kmh 30.06 in1017.9 mb 0.00 in0.0 mm 0.00 in0.0 mm 0.00 in0.0 mm
09:44 AM 68.0°F20.0°C 54.5°F12.5°C 62% 5.1 mph S8.2 kmh S 7.5 mph12.1 kmh 30.05 in1017.6 mb 0.00 in0.0 mm 0.00 in0.0 mm 0.00 in0.0 mm
09:39 AM 68.0°F20.0°C 55.4°F13.0°C 64% 3.9 mph SSE6.3 kmh SSE 6.2 mph10.0 kmh 30.05 in1017.6 mb 0.00 in0.0 mm 0.00 in0.0 mm 0.00 in0.0 mm
09:34 AM 67.7°F19.8°C 55.5°F13.1°C 65% 2.6 mph SSE4.2 kmh SSE 4.4 mph7.1 kmh 30.05 in1017.6 mb 0.00 in0.0 mm 0.00 in0.0 mm 0.00 in0.0 mm
09:29 AM 67.3°F19.6°C 55.1°F12.8°C 65% 2.3 mph SE3.7 kmh SE 3.7 mph6.0 kmh 30.05 in1017.6 mb 0.00 in0.0 mm 0.00 in0.0 mm 0.00 in0.0 mm
09:24 AM 67.1°F19.5°C 54.9°F12.7°C 65% 2.6 mph SE4.2 kmh SE 3.5 mph5.6 kmh 30.05 in1017.6 mb 0.00 in0.0 mm 0.00 in0.0 mm 0.00 in0.0 mm
09:19 AM 66.9°F19.4°C 55.2°F12.9°C 66% 3.1 mph SSW5.0 kmh SSW 4.9 mph7.9 kmh 30.05 in1017.6 mb 0.00 in0.0 mm 0.00 in0.0 mm 0.00 in0.0 mm
09:14 AM 66.7°F19.3°C 55.4°F13.0°C 67% 4.2 mph SSW6.8 kmh SSW 5.4 mph8.7 kmh 30.05 in1017.6 mb 0.00 in0.0 mm 0.00 in0.0 mm 0.00 in0.0 mm
09:09 AM 66.4°F19.1°C 55.9°F13.3°C 69% 3.5 mph SSW5.6 kmh SSW 4.7 mph7.6 kmh 30.05 in1017.6 mb 0.00 in0.0 mm 0.00 in0.0 mm 0.00 in0.0 mm
09:04 AM 65.9°F18.8°C 56.2°F13.4°C 71% 2.2 mph SSW3.5 kmh SSW 3.7 mph6.0 kmh 30.05 in1017.6 mb 0.00 in0.0 mm 0.00 in0.0 mm 0.00 in0.0 mm
08:59 AM 65.5°F18.6°C 57.4°F14.1°C 75% 0.9 mph ESE1.4 kmh ESE 1.6 mph2.6 kmh 30.05 in1017.6 mb 0.00 in0.0 mm 0.00 in0.0 mm 0.00 in0.0 mm
08:54 AM 64.9°F18.3°C 59.3°F15.2°C 82% 3.8 mph SSE6.1 kmh SSE 5.0 mph8.0 kmh 30.05 in1017.6 mb 0.00 in0.0 mm 0.00 in0.0 mm 0.00 in0.0 mm
08:49 AM 64.1°F17.8°C 60.1°F15.6°C 87% 2.7 mph S4.3 kmh S 4.7 mph7.6 kmh 30.05 in1017.6 mb 0.00 in0.0 mm 0.00 in0.0 mm 0.00 in0.0 mm
08:44 AM 63.3°F17.4°C 59.7°F15.4°C 88% 1.3 mph NNE2.1 kmh NNE 2.2 mph3.5 kmh 30.05 in1017.6 mb 0.00 in0.0 mm 0.00 in0.0 mm 0.00 in0.0 mm
08:39 AM 62.2°F16.8°C 58.3°F14.6°C 87% 0.7 mph E1.1 kmh E 3.0 mph4.8 kmh 30.05 in1017.6 mb 0.00 in0.0 mm 0.00 in0.0 mm 0.00 in0.0 mm
08:34 AM 60.7°F15.9°C 56.5°F13.6°C 86% 0.9 mph NNE1.4 kmh NNE 2.1 mph3.4 kmh 30.05 in1017.6 mb 0.00 in0.0 mm 0.00 in0.0 mm 0.00 in0.0 mm
08:29 AM 60.2°F15.7°C 55.7°F13.2°C 85% 1.9 mph ENE3.1 kmh ENE 2.7 mph4.3 kmh 30.05 in1017.6 mb 0.00 in0.0 mm 0.00 in0.0 mm 0.00 in0.0 mm
08:24 AM 60.1°F15.6°C 55.9°F13.3°C 86% 2.4 mph NE3.9 kmh NE 3.2 mph5.1 kmh 30.05 in1017.6 mb 0.00 in0.0 mm 0.00 in0.0 mm 0.00 in0.0 mm
08:19 AM 59.6°F15.3°C 55.4°F13.0°C 86% 2.2 mph N3.5 kmh N 3.2 mph5.1 kmh 30.06 in1017.9 mb 0.00 in0.0 mm 0.00 in0.0 mm 0.00 in0.0 mm
08:14 AM 59.2°F15.1°C 55.3°F12.9°C 87% 0.9 mph NW1.4 kmh NW 1.8 mph2.9 kmh 30.06 in1017.9 mb 0.00 in0.0 mm 0.00 in0.0 mm 0.00 in0.0 mm
08:09 AM 58.8°F14.9°C 54.9°F12.7°C 87% Calm Calm -- 30.06 in1017.9 mb 0.00 in0.0 mm 0.00 in0.0 mm 0.00 in0.0 mm
08:04 AM 58.4°F14.7°C 54.9°F12.7°C 88% 0.1 mph N0.2 kmh N 1.1 mph1.8 kmh 30.06 in1017.9 mb 0.00 in0.0 mm 0.00 in0.0 mm 0.00 in0.0 mm
07:59 AM 58.1°F14.5°C 54.6°F12.6°C 88% 1.2 mph NNE1.9 kmh NNE 1.6 mph2.6 kmh 30.06 in1017.9 mb 0.00 in0.0 mm 0.00 in0.0 mm 0.00 in0.0 mm
07:54 AM 57.9°F14.4°C 54.4°F12.4°C 88% Calm Calm 1.1 mph1.8 kmh 30.06 in1017.9 mb 0.00 in0.0 mm 0.00 in0.0 mm 0.00 in0.0 mm
07:49 AM 57.6°F14.2°C 54.1°F12.3°C 88% 1.5 mph NNE2.4 kmh NNE 2.1 mph3.4 kmh 30.06 in1017.9 mb 0.00 in0.0 mm 0.00 in0.0 mm 0.00 in0.0 mm
07:44 AM 57.2°F14.0°C 54.0°F12.2°C 89% 2.4 mph NNE3.9 kmh NNE 3.5 mph5.6 kmh 30.06 in1017.9 mb 0.00 in0.0 mm 0.00 in0.0 mm 0.00 in0.0 mm
07:39 AM 56.7°F13.7°C 53.8°F12.1°C 90% 1.8 mph NNE2.9 kmh NNE 2.7 mph4.3 kmh 30.06 in1017.9 mb 0.00 in0.0 mm 0.00 in0.0 mm 0.00 in0.0 mm
07:34 AM 56.2°F13.4°C 53.6°F12.0°C 91% 2.0 mph NNW3.2 kmh NNW 2.7 mph4.3 kmh 30.06 in1017.9 mb 0.00 in0.0 mm 0.00 in0.0 mm 0.00 in0.0 mm
07:29 AM 55.9°F13.3°C 53.3°F11.8°C 91% Calm Calm -- 30.06 in1017.9 mb 0.00 in0.0 mm 0.00 in0.0 mm 0.00 in0.0 mm
07:24 AM 55.6°F13.1°C 53.0°F11.7°C 91% 0.8 mph NNW1.3 kmh NNW 1.6 mph2.6 kmh 30.06 in1017.9 mb 0.00 in0.0 mm 0.00 in0.0 mm 0.00 in0.0 mm
07:19 AM 55.3°F12.9°C 53.0°F11.7°C 92% 2.6 mph NNW4.2 kmh NNW 3.5 mph5.6 kmh 30.06 in1017.9 mb 0.00 in0.0 mm 0.00 in0.0 mm 0.00 in0.0 mm
07:14 AM 55.1°F12.8°C 53.1°F11.7°C 93% 2.0 mph NNW3.2 kmh NNW 2.7 mph4.3 kmh 30.06 in1017.9 mb 0.00 in0.0 mm 0.00 in0.0 mm 0.00 in0.0 mm
07:09 AM 54.7°F12.6°C 52.7°F11.5°C 93% 1.7 mph NNE2.7 kmh NNE 2.7 mph4.3 kmh 30.06 in1017.9 mb 0.00 in0.0 mm 0.00 in0.0 mm 0.00 in0.0 mm
07:04 AM 54.5°F12.5°C 52.5°F11.4°C 93% 2.3 mph NNE3.7 kmh NNE 2.7 mph4.3 kmh 30.06 in1017.9 mb 0.00 in0.0 mm 0.00 in0.0 mm 0.00 in0.0 mm
06:59 AM 54.2°F12.3°C 52.5°F11.4°C 94% 1.0 mph NNE1.6 kmh NNE 2.2 mph3.5 kmh 30.06 in1017.9 mb 0.00 in0.0 mm 0.00 in0.0 mm 0.00 in0.0 mm
06:54 AM 53.7°F12.1°C 52.0°F11.1°C 94% Calm Calm -- 30.06 in1017.9 mb 0.00 in0.0 mm 0.00 in0.0 mm 0.00 in0.0 mm
06:49 AM 53.3°F11.8°C 51.9°F11.1°C 95% 0.6 mph NNW1.0 kmh NNW 1.8 mph2.9 kmh 30.06 in1017.9 mb 0.00 in0.0 mm 0.00 in0.0 mm 0.00 in0.0 mm
06:44 AM 53.0°F11.7°C 51.6°F10.9°C 95% 1.4 mph NNW2.3 kmh NNW 1.8 mph2.9 kmh 30.06 in1017.9 mb 0.00 in0.0 mm 0.00 in0.0 mm 0.00 in0.0 mm
06:39 AM 52.6°F11.4°C 51.5°F10.8°C 96% 2.6 mph NNW4.2 kmh NNW 3.0 mph4.8 kmh 30.05 in1017.6 mb 0.00 in0.0 mm 0.00 in0.0 mm 0.00 in0.0 mm
06:34 AM 52.0°F11.1°C 50.9°F10.5°C 96% 3.0 mph NNW4.8 kmh NNW 3.7 mph6.0 kmh 30.05 in1017.6 mb 0.00 in0.0 mm 0.00 in0.0 mm 0.00 in0.0 mm
06:29 AM 51.3°F10.7°C 50.5°F10.3°C 97% 1.7 mph N2.7 kmh N 2.7 mph4.3 kmh 30.04 in1017.3 mb 0.00 in0.0 mm 0.00 in0.0 mm 0.00 in0.0 mm
06:24 AM 50.8°F10.4°C 50.0°F10.0°C 97% Calm Calm -- 30.05 in1017.6 mb 0.00 in0.0 mm 0.00 in0.0 mm 0.00 in0.0 mm
06:19 AM 50.3°F10.2°C 49.8°F9.9°C 98% 1.4 mph NNW2.3 kmh NNW 2.2 mph3.5 kmh 30.05 in1017.6 mb 0.00 in0.0 mm 0.00 in0.0 mm 0.00 in0.0 mm
06:14 AM 49.8°F9.9°C 49.3°F9.6°C 98% 2.1 mph N3.4 kmh N 2.7 mph4.3 kmh 30.04 in1017.3 mb 0.00 in0.0 mm 0.00 in0.0 mm 0.00 in0.0 mm
06:09 AM 49.6°F9.8°C 49.1°F9.5°C 98% Calm Calm -- 30.04 in1017.3 mb 0.00 in0.0 mm 0.00 in0.0 mm 0.00 in0.0 mm
06:04 AM 49.3°F9.6°C 48.8°F9.3°C 98% 1.6 mph NNW2.6 kmh NNW 1.8 mph2.9 kmh 30.04 in1017.3 mb 0.00 in0.0 mm 0.00 in0.0 mm 0.00 in0.0 mm
05:59 AM 49.0°F9.4°C 48.5°F9.2°C 98% 2.2 mph NNW3.5 kmh NNW 2.6 mph4.2 kmh 30.04 in1017.3 mb 0.00 in0.0 mm 0.00 in0.0 mm 0.00 in0.0 mm
05:54 AM 48.7°F9.3°C 48.2°F9.0°C 98% Calm Calm -- 30.04 in1017.3 mb 0.00 in0.0 mm 0.00 in0.0 mm 0.00 in0.0 mm
05:49 AM 48.6°F9.2°C 48.1°F8.9°C 98% 1.5 mph NNW2.4 kmh NNW 1.8 mph2.9 kmh 30.04 in1017.3 mb 0.00 in0.0 mm 0.00 in0.0 mm 0.00 in0.0 mm
05:44 AM 48.2°F9.0°C 47.4°F8.6°C 97% 1.6 mph NNW2.6 kmh NNW 2.1 mph3.4 kmh 30.04 in1017.3 mb 0.00 in0.0 mm 0.00 in0.0 mm 0.00 in0.0 mm
05:39 AM 48.1°F8.9°C 47.3°F8.5°C 97% 0.3 mph NNW0.5 kmh NNW 1.6 mph2.6 kmh 30.04 in1017.3 mb 0.00 in0.0 mm 0.00 in0.0 mm 0.00 in0.0 mm
05:34 AM 47.8°F8.8°C 47.0°F8.3°C 97% Calm Calm -- 30.04 in1017.3 mb 0.00 in0.0 mm 0.00 in0.0 mm 0.00 in0.0 mm
05:29 AM 47.6°F8.7°C 46.8°F8.2°C 97% 1.5 mph NNW2.4 kmh NNW 2.1 mph3.4 kmh 30.03 in1016.9 mb 0.00 in0.0 mm 0.00 in0.0 mm 0.00 in0.0 mm
05:24 AM 47.3°F8.5°C 46.5°F8.1°C 97% Calm Calm -- 30.03 in1016.9 mb 0.00 in0.0 mm 0.00 in0.0 mm 0.00 in0.0 mm
05:19 AM 47.3°F8.5°C 46.5°F8.1°C 97% 1.4 mph NNW2.3 kmh NNW 1.6 mph2.6 kmh 30.04 in1017.3 mb 0.00 in0.0 mm 0.00 in0.0 mm 0.00 in0.0 mm
05:14 AM 47.5°F8.6°C 46.4°F8.0°C 96% 1.5 mph NNW2.4 kmh NNW 2.1 mph3.4 kmh 30.04 in1017.3 mb 0.00 in0.0 mm 0.00 in0.0 mm 0.00 in0.0 mm
05:09 AM 47.7°F8.7°C 46.6°F8.1°C 96% 2.0 mph NNW3.2 kmh NNW 2.2 mph3.5 kmh 30.04 in1017.3 mb 0.00 in0.0 mm 0.00 in0.0 mm 0.00 in0.0 mm
05:04 AM 47.8°F8.8°C 46.7°F8.2°C 96% 2.4 mph NNW3.9 kmh NNW 2.7 mph4.3 kmh 30.03 in1016.9 mb 0.00 in0.0 mm 0.00 in0.0 mm 0.00 in0.0 mm
04:59 AM 48.2°F9.0°C 47.1°F8.4°C 96% Calm Calm -- 30.04 in1017.3 mb 0.00 in0.0 mm 0.00 in0.0 mm 0.00 in0.0 mm
04:54 AM 48.2°F9.0°C 47.1°F8.4°C 96% Calm Calm -- 30.04 in1017.3 mb 0.00 in0.0 mm 0.00 in0.0 mm 0.00 in0.0 mm
04:49 AM 48.3°F9.1°C 47.2°F8.4°C 96% 0.4 mph NNW0.6 kmh NNW 2.1 mph3.4 kmh 30.04 in1017.3 mb 0.00 in0.0 mm 0.00 in0.0 mm 0.00 in0.0 mm
04:44 AM 48.5°F9.2°C 47.4°F8.6°C 96% Calm Calm -- 30.03 in1016.9 mb 0.00 in0.0 mm 0.00 in0.0 mm 0.00 in0.0 mm
04:39 AM 48.6°F9.2°C 47.5°F8.6°C 96% 0.4 mph NNW0.6 kmh NNW 1.8 mph2.9 kmh 30.03 in1016.9 mb 0.00 in0.0 mm 0.00 in0.0 mm 0.00 in0.0 mm
04:34 AM 48.6°F9.2°C 47.5°F8.6°C 96% 1.6 mph NNW2.6 kmh NNW 1.8 mph2.9 kmh 30.03 in1016.9 mb 0.00 in0.0 mm 0.00 in0.0 mm 0.00 in0.0 mm
04:29 AM 48.8°F9.3°C 47.7°F8.7°C 96% 1.6 mph NNW2.6 kmh NNW 2.1 mph3.4 kmh 30.03 in1016.9 mb 0.00 in0.0 mm 0.00 in0.0 mm 0.00 in0.0 mm
04:24 AM 49.0°F9.4°C 47.9°F8.8°C 96% 1.4 mph NNW2.3 kmh NNW 1.6 mph2.6 kmh 30.03 in1016.9 mb 0.00 in0.0 mm 0.00 in0.0 mm 0.00 in0.0 mm
04:19 AM 49.2°F9.6°C 48.1°F8.9°C 96% Calm Calm -- 30.04 in1017.3 mb 0.00 in0.0 mm 0.00 in0.0 mm 0.00 in0.0 mm
04:14 AM 49.3°F9.6°C 48.2°F9.0°C 96% 1.6 mph NNW2.6 kmh NNW 2.1 mph3.4 kmh 30.03 in1016.9 mb 0.00 in0.0 mm 0.00 in0.0 mm 0.00 in0.0 mm
04:09 AM 49.3°F9.6°C 48.2°F9.0°C 96% 1.9 mph NNW3.1 kmh NNW 2.2 mph3.5 kmh 30.03 in1016.9 mb 0.00 in0.0 mm 0.00 in0.0 mm 0.00 in0.0 mm
04:04 AM 49.3°F9.6°C 48.2°F9.0°C 96% 1.2 mph NNW1.9 kmh NNW 1.8 mph2.9 kmh 30.03 in1016.9 mb 0.00 in0.0 mm 0.00 in0.0 mm 0.00 in0.0 mm
03:59 AM 49.3°F9.6°C 48.2°F9.0°C 96% 0.8 mph NNW1.3 kmh NNW 1.6 mph2.6 kmh 30.04 in1017.3 mb 0.00 in0.0 mm 0.00 in0.0 mm 0.00 in0.0 mm
03:54 AM 49.3°F9.6°C 47.9°F8.8°C 95% 1.4 mph NNW2.3 kmh NNW 1.8 mph2.9 kmh 30.04 in1017.3 mb 0.00 in0.0 mm 0.00 in0.0 mm 0.00 in0.0 mm
03:49 AM 49.2°F9.6°C 47.8°F8.8°C 95% Calm Calm -- 30.04 in1017.3 mb 0.00 in0.0 mm 0.00 in0.0 mm 0.00 in0.0 mm
03:44 AM 49.2°F9.6°C 47.8°F8.8°C 95% Calm Calm -- 30.04 in1017.3 mb 0.00 in0.0 mm 0.00 in0.0 mm 0.00 in0.0 mm
03:39 AM 49.0°F9.4°C 47.6°F8.7°C 95% Calm Calm -- 30.04 in1017.3 mb 0.00 in0.0 mm 0.00 in0.0 mm 0.00 in0.0 mm
03:34 AM 49.1°F9.5°C 47.7°F8.7°C 95% Calm Calm 1.1 mph1.8 kmh 30.04 in1017.3 mb 0.00 in0.0 mm 0.00 in0.0 mm 0.00 in0.0 mm
03:29 AM 49.2°F9.6°C 47.8°F8.8°C 95% 1.3 mph NNW2.1 kmh NNW 1.6 mph2.6 kmh 30.03 in1016.9 mb 0.00 in0.0 mm 0.00 in0.0 mm 0.00 in0.0 mm
03:24 AM 49.2°F9.6°C 47.8°F8.8°C 95% 1.1 mph NNW1.8 kmh NNW 1.6 mph2.6 kmh 30.04 in1017.3 mb 0.00 in0.0 mm 0.00 in0.0 mm 0.00 in0.0 mm
03:19 AM 49.3°F9.6°C 47.9°F8.8°C 95% Calm Calm -- 30.03 in1016.9 mb 0.00 in0.0 mm 0.00 in0.0 mm 0.00 in0.0 mm
03:14 AM 49.5°F9.7°C 48.1°F8.9°C 95% Calm Calm -- 30.03 in1016.9 mb 0.00 in0.0 mm 0.00 in0.0 mm 0.00 in0.0 mm
03:09 AM 49.6°F9.8°C 48.2°F9.0°C 95% Calm Calm -- 30.03 in1016.9 mb 0.00 in0.0 mm 0.00 in0.0 mm 0.00 in0.0 mm
03:04 AM 49.7°F9.8°C 48.3°F9.1°C 95% Calm Calm -- 30.03 in1016.9 mb 0.00 in0.0 mm 0.00 in0.0 mm 0.00 in0.0 mm
02:59 AM 49.7°F9.8°C 48.3°F9.1°C 95% Calm Calm -- 30.03 in1016.9 mb 0.00 in0.0 mm 0.00 in0.0 mm 0.00 in0.0 mm
02:54 AM 49.7°F9.8°C 48.3°F9.1°C 95% 0.8 mph NE1.3 kmh NE 1.6 mph2.6 kmh 30.03 in1016.9 mb 0.00 in0.0 mm 0.00 in0.0 mm 0.00 in0.0 mm
02:49 AM 49.7°F9.8°C 48.3°F9.1°C 95% Calm Calm -- 30.04 in1017.3 mb 0.00 in0.0 mm 0.00 in0.0 mm 0.00 in0.0 mm
02:44 AM 49.8°F9.9°C 48.4°F9.1°C 95% Calm Calm -- 30.03 in1016.9 mb 0.00 in0.0 mm 0.00 in0.0 mm 0.00 in0.0 mm
02:39 AM 49.8°F9.9°C 48.1°F8.9°C 94% Calm Calm -- 30.04 in1017.3 mb 0.00 in0.0 mm 0.00 in0.0 mm 0.00 in0.0 mm
02:34 AM 49.6°F9.8°C 47.9°F8.8°C 94% Calm Calm -- 30.04 in1017.3 mb 0.00 in0.0 mm 0.00 in0.0 mm 0.00 in0.0 mm
02:29 AM 49.5°F9.7°C 47.8°F8.8°C 94% Calm Calm -- 30.04 in1017.3 mb 0.00 in0.0 mm 0.00 in0.0 mm 0.00 in0.0 mm
02:24 AM 49.3°F9.6°C 47.4°F8.6°C 93% 0.3 mph NE0.5 kmh NE 1.3 mph2.1 kmh 30.04 in1017.3 mb 0.00 in0.0 mm 0.00 in0.0 mm 0.00 in0.0 mm
02:19 AM 49.5°F9.7°C 47.6°F8.7°C 93% Calm Calm -- 30.04 in1017.3 mb 0.00 in0.0 mm 0.00 in0.0 mm 0.00 in0.0 mm
02:14 AM 49.7°F9.8°C 47.8°F8.8°C 93% Calm Calm -- 30.04 in1017.3 mb 0.00 in0.0 mm 0.00 in0.0 mm 0.00 in0.0 mm
02:09 AM 50.0°F10.0°C 48.1°F8.9°C 93% 0.2 mph NE0.3 kmh NE 1.1 mph1.8 kmh 30.05 in1017.6 mb 0.00 in0.0 mm 0.00 in0.0 mm 0.00 in0.0 mm
02:04 AM 50.0°F10.0°C 47.8°F8.8°C 92% Calm Calm -- 30.05 in1017.6 mb 0.00 in0.0 mm 0.00 in0.0 mm 0.00 in0.0 mm
01:59 AM 50.0°F10.0°C 47.8°F8.8°C 92% Calm Calm -- 30.05 in1017.6 mb 0.00 in0.0 mm 0.00 in0.0 mm 0.00 in0.0 mm
01:54 AM 50.1°F10.1°C 47.9°F8.8°C 92% Calm Calm -- 30.05 in1017.6 mb 0.00 in0.0 mm 0.00 in0.0 mm 0.00 in0.0 mm
01:49 AM 50.2°F10.1°C 48.0°F8.9°C 92% Calm Calm 1.1 mph1.8 kmh 30.05 in1017.6 mb 0.00 in0.0 mm 0.00 in0.0 mm 0.00 in0.0 mm
01:44 AM 50.5°F10.3°C 48.0°F8.9°C 91% Calm Calm -- 30.05 in1017.6 mb 0.00 in0.0 mm 0.00 in0.0 mm 0.00 in0.0 mm
01:39 AM 50.7°F10.4°C 48.2°F9.0°C 91% Calm Calm -- 30.04 in1017.3 mb 0.00 in0.0 mm 0.00 in0.0 mm 0.00 in0.0 mm
01:34 AM 50.8°F10.4°C 48.3°F9.1°C 91% Calm Calm -- 30.04 in1017.3 mb 0.00 in0.0 mm 0.00 in0.0 mm 0.00 in0.0 mm
01:29 AM 51.0°F10.6°C 48.5°F9.2°C 91% Calm Calm -- 30.04 in1017.3 mb 0.00 in0.0 mm 0.00 in0.0 mm 0.00 in0.0 mm
01:24 AM 51.1°F10.6°C 48.6°F9.2°C 91% Calm Calm -- 30.05 in1017.6 mb 0.00 in0.0 mm 0.00 in0.0 mm 0.00 in0.0 mm
01:19 AM 51.2°F10.7°C 48.4°F9.1°C 90% Calm Calm -- 30.05 in1017.6 mb 0.00 in0.0 mm 0.00 in0.0 mm 0.00 in0.0 mm
01:14 AM 51.6°F10.9°C 48.8°F9.3°C 90% Calm Calm -- 30.05 in1017.6 mb 0.00 in0.0 mm 0.00 in0.0 mm 0.00 in0.0 mm
01:09 AM 51.8°F11.0°C 49.0°F9.4°C 90% Calm Calm -- 30.05 in1017.6 mb 0.00 in0.0 mm 0.00 in0.0 mm 0.00 in0.0 mm
01:04 AM 52.0°F11.1°C 49.2°F9.6°C 90% 0.9 mph NE1.4 kmh NE 1.6 mph2.6 kmh 30.05 in1017.6 mb 0.00 in0.0 mm 0.00 in0.0 mm 0.00 in0.0 mm
12:59 AM 52.0°F11.1°C 48.9°F9.4°C 89% Calm Calm -- 30.05 in1017.6 mb 0.00 in0.0 mm 0.00 in0.0 mm 0.00 in0.0 mm
12:54 AM 51.9°F11.1°C 48.8°F9.3°C 89% Calm Calm -- 30.05 in1017.6 mb 0.00 in0.0 mm 0.00 in0.0 mm 0.00 in0.0 mm
12:49 AM 52.0°F11.1°C 48.9°F9.4°C 89% Calm Calm -- 30.05 in1017.6 mb 0.00 in0.0 mm 0.00 in0.0 mm 0.00 in0.0 mm
12:44 AM 52.2°F11.2°C 49.4°F9.7°C 90% Calm Calm -- 30.04 in1017.3 mb 0.00 in0.0 mm 0.00 in0.0 mm 0.00 in0.0 mm
12:39 AM 52.5°F11.4°C 49.4°F9.7°C 89% Calm Calm -- 30.04 in1017.3 mb 0.00 in0.0 mm 0.00 in0.0 mm 0.00 in0.0 mm
12:34 AM 52.3°F11.3°C 49.2°F9.6°C 89% Calm Calm -- 30.04 in1017.3 mb 0.00 in0.0 mm 0.00 in0.0 mm 0.00 in0.0 mm
12:29 AM 52.2°F11.2°C 48.8°F9.3°C 88% Calm Calm -- 30.04 in1017.3 mb 0.00 in0.0 mm 0.00 in0.0 mm 0.00 in0.0 mm
12:24 AM 52.2°F11.2°C 48.8°F9.3°C 88% 1.2 mph NNW1.9 kmh NNW 2.1 mph3.4 kmh 30.04 in1017.3 mb 0.00 in0.0 mm 0.00 in0.0 mm 0.00 in0.0 mm
12:19 AM 52.5°F11.4°C 48.7°F9.3°C 87% 0.5 mph NNW0.8 kmh NNW 1.6 mph2.6 kmh 30.04 in1017.3 mb 0.00 in0.0 mm 0.00 in0.0 mm 0.00 in0.0 mm
12:14 AM 52.7°F11.5°C 48.3°F9.1°C 85% Calm Calm -- 30.04 in1017.3 mb 0.00 in0.0 mm 0.00 in0.0 mm 0.00 in0.0 mm
12:09 AM 53.1°F11.7°C 48.7°F9.3°C 85% Calm Calm -- 30.04 in1017.3 mb 0.00 in0.0 mm 0.00 in0.0 mm 0.00 in0.0 mm
12:04 AM 53.5°F11.9°C 49.1°F9.5°C 85% 1.0 mph NNW1.6 kmh NNW 1.3 mph2.1 kmh 30.03 in1016.9 mb 0.00 in0.0 mm 0.00 in0.0 mm 0.00 in0.0 mm